sensor_id;sensor_type;location;lat;lon;timestamp;P1;durP1;ratioP1;P2;durP2;ratioP2
29568;SDS011;16501;51.462;14.346;2023-02-18T00:00:17;4.82;;;1.10;;
29568;SDS011;16501;51.462;14.346;2023-02-18T00:02:43;5.53;;;1.35;;
29568;SDS011;16501;51.462;14.346;2023-02-18T00:05:11;4.75;;;1.45;;
29568;SDS011;16501;51.462;14.346;2023-02-18T00:07:38;7.45;;;1.30;;
29568;SDS011;16501;51.462;14.346;2023-02-18T00:10:05;2.78;;;1.10;;
29568;SDS011;16501;51.462;14.346;2023-02-18T00:12:35;4.78;;;1.50;;
29568;SDS011;16501;51.462;14.346;2023-02-18T00:15:00;3.30;;;1.10;;
29568;SDS011;16501;51.462;14.346;2023-02-18T00:17:27;3.72;;;1.10;;
29568;SDS011;16501;51.462;14.346;2023-02-18T00:19:53;3.33;;;0.88;;
29568;SDS011;16501;51.462;14.346;2023-02-18T00:22:19;5.07;;;0.77;;
29568;SDS011;16501;51.462;14.346;2023-02-18T00:24:45;1.20;;;0.55;;
29568;SDS011;16501;51.462;14.346;2023-02-18T00:27:10;3.88;;;0.80;;
29568;SDS011;16501;51.462;14.346;2023-02-18T00:29:35;6.47;;;0.60;;
29568;SDS011;16501;51.462;14.346;2023-02-18T00:32:01;8.50;;;1.38;;
29568;SDS011;16501;51.462;14.346;2023-02-18T00:34:26;4.38;;;0.68;;
29568;SDS011;16501;51.462;14.346;2023-02-18T00:36:52;3.33;;;0.77;;
29568;SDS011;16501;51.462;14.346;2023-02-18T00:39:17;4.05;;;0.82;;
29568;SDS011;16501;51.462;14.346;2023-02-18T00:41:42;10.02;;;1.00;;
29568;SDS011;16501;51.462;14.346;2023-02-18T00:44:08;2.63;;;0.70;;
29568;SDS011;16501;51.462;14.346;2023-02-18T00:46:35;4.47;;;1.25;;
29568;SDS011;16501;51.462;14.346;2023-02-18T00:49:01;3.15;;;0.98;;
29568;SDS011;16501;51.462;14.346;2023-02-18T00:51:27;2.08;;;0.70;;
29568;SDS011;16501;51.462;14.346;2023-02-18T00:53:54;4.80;;;0.90;;
29568;SDS011;16501;51.462;14.346;2023-02-18T00:56:20;4.07;;;0.88;;
29568;SDS011;16501;51.462;14.346;2023-02-18T00:58:45;7.35;;;1.65;;
29568;SDS011;16501;51.462;14.346;2023-02-18T01:01:11;1.63;;;0.68;;
29568;SDS011;16501;51.462;14.346;2023-02-18T01:03:38;3.47;;;0.80;;
29568;SDS011;16501;51.462;14.346;2023-02-18T01:06:12;3.90;;;0.80;;
29568;SDS011;16501;51.462;14.346;2023-02-18T01:08:38;7.05;;;1.52;;
29568;SDS011;16501;51.462;14.346;2023-02-18T01:11:05;6.55;;;1.13;;
29568;SDS011;16501;51.462;14.346;2023-02-18T01:13:31;6.15;;;1.00;;
29568;SDS011;16501;51.462;14.346;2023-02-18T01:15:57;5.10;;;1.02;;
29568;SDS011;16501;51.462;14.346;2023-02-18T01:18:23;5.65;;;1.38;;
29568;SDS011;16501;51.462;14.346;2023-02-18T01:20:50;6.38;;;1.15;;
29568;SDS011;16501;51.462;14.346;2023-02-18T01:23:16;4.28;;;0.80;;
29568;SDS011;16501;51.462;14.346;2023-02-18T01:25:42;4.80;;;0.80;;
29568;SDS011;16501;51.462;14.346;2023-02-18T01:28:10;5.25;;;1.15;;
29568;SDS011;16501;51.462;14.346;2023-02-18T01:30:37;3.00;;;0.85;;
29568;SDS011;16501;51.462;14.346;2023-02-18T01:33:03;6.97;;;1.20;;
29568;SDS011;16501;51.462;14.346;2023-02-18T01:35:29;2.75;;;0.80;;
29568;SDS011;16501;51.462;14.346;2023-02-18T01:37:56;3.42;;;1.00;;
29568;SDS011;16501;51.462;14.346;2023-02-18T01:40:23;3.42;;;0.80;;
29568;SDS011;16501;51.462;14.346;2023-02-18T01:42:50;1.92;;;0.60;;
29568;SDS011;16501;51.462;14.346;2023-02-18T01:48:24;3.15;;;0.70;;
29568;SDS011;16501;51.462;14.346;2023-02-18T01:51:28;2.15;;;0.95;;
29568;SDS011;16501;51.462;14.346;2023-02-18T01:53:58;4.45;;;1.02;;
29568;SDS011;16501;51.462;14.346;2023-02-18T01:59:14;4.00;;;1.15;;
29568;SDS011;16501;51.462;14.346;2023-02-18T02:01:42;3.97;;;0.93;;
29568;SDS011;16501;51.462;14.346;2023-02-18T02:04:10;8.60;;;1.00;;
29568;SDS011;16501;51.462;14.346;2023-02-18T02:06:36;5.30;;;1.02;;
29568;SDS011;16501;51.462;14.346;2023-02-18T02:09:03;3.60;;;1.17;;
29568;SDS011;16501;51.462;14.346;2023-02-18T02:14:48;3.90;;;1.02;;
29568;SDS011;16501;51.462;14.346;2023-02-18T02:35:20;3.53;;;0.90;;
29568;SDS011;16501;51.462;14.346;2023-02-18T02:38:04;3.88;;;0.80;;
29568;SDS011;16501;51.462;14.346;2023-02-18T02:40:51;5.32;;;1.05;;
29568;SDS011;16501;51.462;14.346;2023-02-18T02:53:54;4.22;;;0.90;;
29568;SDS011;16501;51.462;14.346;2023-02-18T02:56:21;6.80;;;1.10;;
29568;SDS011;16501;51.462;14.346;2023-02-18T02:59:03;5.55;;;1.25;;
29568;SDS011;16501;51.462;14.346;2023-02-18T03:02:17;6.40;;;0.98;;
29568;SDS011;16501;51.462;14.346;2023-02-18T03:04:55;6.10;;;0.95;;
29568;SDS011;16501;51.462;14.346;2023-02-18T03:07:41;7.40;;;1.02;;
29568;SDS011;16501;51.462;14.346;2023-02-18T03:10:32;3.88;;;1.08;;
29568;SDS011;16501;51.462;14.346;2023-02-18T03:13:17;1.92;;;0.60;;
29568;SDS011;16501;51.462;14.346;2023-02-18T03:19:02;4.65;;;0.63;;
29568;SDS011;16501;51.462;14.346;2023-02-18T03:21:43;3.53;;;0.77;;
29568;SDS011;16501;51.462;14.346;2023-02-18T03:24:16;1.97;;;0.97;;
29568;SDS011;16501;51.462;14.346;2023-02-18T03:27:00;10.32;;;1.02;;
29568;SDS011;16501;51.462;14.346;2023-02-18T03:29:31;5.28;;;0.68;;
29568;SDS011;16501;51.462;14.346;2023-02-18T03:31:59;6.95;;;1.25;;
29568;SDS011;16501;51.462;14.346;2023-02-18T03:34:30;3.53;;;1.00;;
29568;SDS011;16501;51.462;14.346;2023-02-18T03:36:59;3.38;;;1.10;;
29568;SDS011;16501;51.462;14.346;2023-02-18T03:39:26;2.97;;;1.17;;
29568;SDS011;16501;51.462;14.346;2023-02-18T03:41:53;3.58;;;0.70;;
29568;SDS011;16501;51.462;14.346;2023-02-18T03:44:19;7.75;;;1.40;;
29568;SDS011;16501;51.462;14.346;2023-02-18T03:46:45;3.25;;;0.90;;
29568;SDS011;16501;51.462;14.346;2023-02-18T03:49:11;3.40;;;0.85;;
29568;SDS011;16501;51.462;14.346;2023-02-18T03:51:39;3.20;;;0.75;;
29568;SDS011;16501;51.462;14.346;2023-02-18T03:54:05;4.45;;;1.13;;
29568;SDS011;16501;51.462;14.346;2023-02-18T03:56:30;7.22;;;0.70;;
29568;SDS011;16501;51.462;14.346;2023-02-18T03:58:55;3.05;;;1.23;;
29568;SDS011;16501;51.462;14.346;2023-02-18T04:01:20;10.63;;;1.20;;
29568;SDS011;16501;51.462;14.346;2023-02-18T04:03:46;6.93;;;1.02;;
29568;SDS011;16501;51.462;14.346;2023-02-18T04:06:11;3.28;;;0.90;;
29568;SDS011;16501;51.462;14.346;2023-02-18T04:08:38;4.15;;;0.80;;
29568;SDS011;16501;51.462;14.346;2023-02-18T04:11:03;8.00;;;0.95;;
29568;SDS011;16501;51.462;14.346;2023-02-18T04:13:29;1.88;;;0.60;;
29568;SDS011;16501;51.462;14.346;2023-02-18T04:15:55;4.88;;;0.88;;
29568;SDS011;16501;51.462;14.346;2023-02-18T04:18:21;3.60;;;0.90;;
29568;SDS011;16501;51.462;14.346;2023-02-18T04:20:47;2.28;;;0.70;;
29568;SDS011;16501;51.462;14.346;2023-02-18T04:23:12;3.72;;;0.50;;
29568;SDS011;16501;51.462;14.346;2023-02-18T04:25:38;2.15;;;0.60;;
29568;SDS011;16501;51.462;14.346;2023-02-18T04:28:04;2.88;;;1.08;;
29568;SDS011;16501;51.462;14.346;2023-02-18T04:30:29;5.18;;;1.15;;
29568;SDS011;16501;51.462;14.346;2023-02-18T04:32:55;1.85;;;0.73;;
29568;SDS011;16501;51.462;14.346;2023-02-18T04:35:20;4.72;;;0.52;;
29568;SDS011;16501;51.462;14.346;2023-02-18T04:37:45;3.45;;;0.85;;
29568;SDS011;16501;51.462;14.346;2023-02-18T04:40:11;7.45;;;0.73;;
29568;SDS011;16501;51.462;14.346;2023-02-18T04:42:36;3.78;;;0.70;;
29568;SDS011;16501;51.462;14.346;2023-02-18T04:45:01;11.05;;;1.08;;
29568;SDS011;16501;51.462;14.346;2023-02-18T04:47:27;3.85;;;1.02;;
29568;SDS011;16501;51.462;14.346;2023-02-18T04:49:54;4.15;;;0.73;;
29568;SDS011;16501;51.462;14.346;2023-02-18T04:52:19;6.13;;;0.73;;
29568;SDS011;16501;51.462;14.346;2023-02-18T04:54:44;2.60;;;0.60;;
29568;SDS011;16501;51.462;14.346;2023-02-18T04:57:10;5.35;;;0.82;;
29568;SDS011;16501;51.462;14.346;2023-02-18T04:59:36;3.67;;;0.90;;
29568;SDS011;16501;51.462;14.346;2023-02-18T05:02:02;6.32;;;1.13;;
29568;SDS011;16501;51.462;14.346;2023-02-18T05:04:27;2.95;;;0.60;;
29568;SDS011;16501;51.462;14.346;2023-02-18T05:06:52;4.07;;;0.60;;
29568;SDS011;16501;51.462;14.346;2023-02-18T05:09:18;4.45;;;0.90;;
29568;SDS011;16501;51.462;14.346;2023-02-18T05:11:44;5.05;;;0.98;;
29568;SDS011;16501;51.462;14.346;2023-02-18T05:14:11;4.00;;;0.65;;
29568;SDS011;16501;51.462;14.346;2023-02-18T05:16:37;4.28;;;0.98;;
29568;SDS011;16501;51.462;14.346;2023-02-18T05:19:03;10.63;;;0.98;;
29568;SDS011;16501;51.462;14.346;2023-02-18T05:21:29;2.50;;;0.82;;
29568;SDS011;16501;51.462;14.346;2023-02-18T05:23:56;1.80;;;0.73;;
29568;SDS011;16501;51.462;14.346;2023-02-18T05:26:21;2.88;;;0.75;;
29568;SDS011;16501;51.462;14.346;2023-02-18T05:28:47;2.63;;;0.60;;
29568;SDS011;16501;51.462;14.346;2023-02-18T05:31:12;2.92;;;0.57;;
29568;SDS011;16501;51.462;14.346;2023-02-18T05:33:39;5.20;;;0.90;;
29568;SDS011;16501;51.462;14.346;2023-02-18T05:36:05;6.85;;;1.08;;
29568;SDS011;16501;51.462;14.346;2023-02-18T05:38:31;1.83;;;0.60;;
29568;SDS011;16501;51.462;14.346;2023-02-18T05:40:57;2.13;;;0.80;;
29568;SDS011;16501;51.462;14.346;2023-02-18T05:43:23;6.78;;;1.10;;
29568;SDS011;16501;51.462;14.346;2023-02-18T05:45:48;2.30;;;0.70;;
29568;SDS011;16501;51.462;14.346;2023-02-18T05:48:15;5.55;;;1.05;;
29568;SDS011;16501;51.462;14.346;2023-02-18T05:50:40;4.13;;;0.68;;
29568;SDS011;16501;51.462;14.346;2023-02-18T05:53:06;2.38;;;0.80;;
29568;SDS011;16501;51.462;14.346;2023-02-18T05:55:31;3.03;;;1.00;;
29568;SDS011;16501;51.462;14.346;2023-02-18T05:58:01;3.38;;;1.05;;
29568;SDS011;16501;51.462;14.346;2023-02-18T06:00:27;7.80;;;1.20;;
29568;SDS011;16501;51.462;14.346;2023-02-18T06:02:53;2.55;;;0.80;;
29568;SDS011;16501;51.462;14.346;2023-02-18T06:05:19;3.28;;;1.50;;
29568;SDS011;16501;51.462;14.346;2023-02-18T06:07:44;7.22;;;0.93;;
29568;SDS011;16501;51.462;14.346;2023-02-18T06:10:10;4.95;;;1.20;;
29568;SDS011;16501;51.462;14.346;2023-02-18T06:12:35;3.05;;;0.80;;
29568;SDS011;16501;51.462;14.346;2023-02-18T06:15:01;3.30;;;1.42;;
29568;SDS011;16501;51.462;14.346;2023-02-18T06:17:27;6.63;;;0.90;;
29568;SDS011;16501;51.462;14.346;2023-02-18T06:19:52;4.57;;;1.13;;
29568;SDS011;16501;51.462;14.346;2023-02-18T06:22:17;6.93;;;1.25;;
29568;SDS011;16501;51.462;14.346;2023-02-18T06:24:43;5.30;;;1.15;;
29568;SDS011;16501;51.462;14.346;2023-02-18T06:27:08;7.90;;;1.52;;
29568;SDS011;16501;51.462;14.346;2023-02-18T06:29:34;6.60;;;1.02;;
29568;SDS011;16501;51.462;14.346;2023-02-18T06:32:01;7.85;;;1.20;;
29568;SDS011;16501;51.462;14.346;2023-02-18T06:34:27;5.05;;;1.27;;
29568;SDS011;16501;51.462;14.346;2023-02-18T06:36:52;8.13;;;0.93;;
29568;SDS011;16501;51.462;14.346;2023-02-18T06:39:17;8.90;;;1.08;;
29568;SDS011;16501;51.462;14.346;2023-02-18T06:41:43;5.03;;;1.02;;
29568;SDS011;16501;51.462;14.346;2023-02-18T06:44:08;5.93;;;0.98;;
29568;SDS011;16501;51.462;14.346;2023-02-18T06:46:33;10.38;;;1.33;;
29568;SDS011;16501;51.462;14.346;2023-02-18T06:48:59;14.18;;;4.57;;
29568;SDS011;16501;51.462;14.346;2023-02-18T06:51:24;29.10;;;12.88;;
29568;SDS011;16501;51.462;14.346;2023-02-18T06:53:49;23.55;;;10.98;;
29568;SDS011;16501;51.462;14.346;2023-02-18T06:56:15;18.58;;;7.13;;
29568;SDS011;16501;51.462;14.346;2023-02-18T06:58:40;7.97;;;2.85;;
29568;SDS011;16501;51.462;14.346;2023-02-18T07:01:06;7.40;;;2.60;;
29568;SDS011;16501;51.462;14.346;2023-02-18T07:03:31;11.27;;;1.85;;
29568;SDS011;16501;51.462;14.346;2023-02-18T07:05:57;13.85;;;3.97;;
29568;SDS011;16501;51.462;14.346;2023-02-18T07:08:22;11.90;;;2.60;;
29568;SDS011;16501;51.462;14.346;2023-02-18T07:10:47;6.53;;;1.45;;
29568;SDS011;16501;51.462;14.346;2023-02-18T07:13:13;6.35;;;1.98;;
29568;SDS011;16501;51.462;14.346;2023-02-18T07:15:39;9.15;;;1.48;;
29568;SDS011;16501;51.462;14.346;2023-02-18T07:18:04;9.60;;;1.80;;
29568;SDS011;16501;51.462;14.346;2023-02-18T07:20:30;7.22;;;1.58;;
29568;SDS011;16501;51.462;14.346;2023-02-18T07:22:57;11.20;;;1.90;;
29568;SDS011;16501;51.462;14.346;2023-02-18T07:25:22;7.20;;;1.40;;
29568;SDS011;16501;51.462;14.346;2023-02-18T07:27:48;12.70;;;1.85;;
29568;SDS011;16501;51.462;14.346;2023-02-18T07:30:15;13.55;;;2.05;;
29568;SDS011;16501;51.462;14.346;2023-02-18T07:32:40;4.38;;;1.25;;
29568;SDS011;16501;51.462;14.346;2023-02-18T07:35:07;4.57;;;1.25;;
29568;SDS011;16501;51.462;14.346;2023-02-18T07:37:34;6.63;;;1.90;;
29568;SDS011;16501;51.462;14.346;2023-02-18T07:39:59;7.40;;;1.45;;
29568;SDS011;16501;51.462;14.346;2023-02-18T07:42:25;7.25;;;1.70;;
29568;SDS011;16501;51.462;14.346;2023-02-18T07:44:51;5.78;;;1.90;;
29568;SDS011;16501;51.462;14.346;2023-02-18T07:47:16;8.63;;;1.75;;
29568;SDS011;16501;51.462;14.346;2023-02-18T07:49:43;6.65;;;1.63;;
29568;SDS011;16501;51.462;14.346;2023-02-18T07:52:11;6.00;;;1.75;;
29568;SDS011;16501;51.462;14.346;2023-02-18T07:54:37;8.60;;;1.67;;
29568;SDS011;16501;51.462;14.346;2023-02-18T07:57:02;14.23;;;2.50;;
29568;SDS011;16501;51.462;14.346;2023-02-18T07:59:28;6.95;;;2.15;;
29568;SDS011;16501;51.462;14.346;2023-02-18T08:01:53;8.02;;;2.15;;
29568;SDS011;16501;51.462;14.346;2023-02-18T08:04:18;4.15;;;1.40;;
29568;SDS011;16501;51.462;14.346;2023-02-18T08:06:45;11.52;;;1.80;;
29568;SDS011;16501;51.462;14.346;2023-02-18T08:09:13;6.82;;;1.85;;
29568;SDS011;16501;51.462;14.346;2023-02-18T08:11:40;9.40;;;2.15;;
29568;SDS011;16501;51.462;14.346;2023-02-18T08:14:05;8.35;;;1.88;;
29568;SDS011;16501;51.462;14.346;2023-02-18T08:16:31;11.68;;;2.97;;
29568;SDS011;16501;51.462;14.346;2023-02-18T08:18:57;9.15;;;2.30;;
29568;SDS011;16501;51.462;14.346;2023-02-18T08:21:23;8.13;;;1.80;;
29568;SDS011;16501;51.462;14.346;2023-02-18T08:23:49;9.57;;;2.45;;
29568;SDS011;16501;51.462;14.346;2023-02-18T08:26:18;9.80;;;2.63;;
29568;SDS011;16501;51.462;14.346;2023-02-18T08:28:44;8.07;;;2.10;;
29568;SDS011;16501;51.462;14.346;2023-02-18T08:31:18;6.78;;;2.20;;
29568;SDS011;16501;51.462;14.346;2023-02-18T08:33:46;11.88;;;2.65;;
29568;SDS011;16501;51.462;14.346;2023-02-18T08:36:12;12.73;;;3.83;;
29568;SDS011;16501;51.462;14.346;2023-02-18T08:38:38;7.88;;;2.85;;
29568;SDS011;16501;51.462;14.346;2023-02-18T08:41:07;10.77;;;2.50;;
29568;SDS011;16501;51.462;14.346;2023-02-18T08:43:32;8.30;;;2.72;;
29568;SDS011;16501;51.462;14.346;2023-02-18T08:45:58;10.57;;;2.78;;
29568;SDS011;16501;51.462;14.346;2023-02-18T08:48:24;19.45;;;4.07;;
29568;SDS011;16501;51.462;14.346;2023-02-18T08:50:50;11.70;;;3.53;;
29568;SDS011;16501;51.462;14.346;2023-02-18T08:53:16;13.05;;;3.95;;
29568;SDS011;16501;51.462;14.346;2023-02-18T08:55:42;11.85;;;4.05;;
29568;SDS011;16501;51.462;14.346;2023-02-18T08:58:08;14.95;;;3.30;;
29568;SDS011;16501;51.462;14.346;2023-02-18T09:00:34;13.15;;;2.33;;
29568;SDS011;16501;51.462;14.346;2023-02-18T09:03:01;6.82;;;2.50;;
29568;SDS011;16501;51.462;14.346;2023-02-18T09:05:27;8.63;;;2.80;;
29568;SDS011;16501;51.462;14.346;2023-02-18T09:07:52;8.40;;;2.35;;
29568;SDS011;16501;51.462;14.346;2023-02-18T09:10:18;10.73;;;3.28;;
29568;SDS011;16501;51.462;14.346;2023-02-18T09:12:43;10.45;;;3.20;;
29568;SDS011;16501;51.462;14.346;2023-02-18T09:15:09;9.88;;;3.38;;
29568;SDS011;16501;51.462;14.346;2023-02-18T09:17:34;9.82;;;2.63;;
29568;SDS011;16501;51.462;14.346;2023-02-18T09:20:00;13.07;;;2.63;;
29568;SDS011;16501;51.462;14.346;2023-02-18T09:22:27;10.95;;;2.17;;
29568;SDS011;16501;51.462;14.346;2023-02-18T09:24:52;9.77;;;2.30;;
29568;SDS011;16501;51.462;14.346;2023-02-18T09:27:18;10.73;;;2.83;;
29568;SDS011;16501;51.462;14.346;2023-02-18T09:29:43;9.45;;;2.40;;
29568;SDS011;16501;51.462;14.346;2023-02-18T09:32:09;11.60;;;2.58;;
29568;SDS011;16501;51.462;14.346;2023-02-18T09:34:36;16.00;;;2.60;;
29568;SDS011;16501;51.462;14.346;2023-02-18T09:37:01;12.38;;;2.83;;
29568;SDS011;16501;51.462;14.346;2023-02-18T09:39:27;8.15;;;2.90;;
29568;SDS011;16501;51.462;14.346;2023-02-18T09:41:53;9.10;;;2.42;;
29568;SDS011;16501;51.462;14.346;2023-02-18T09:44:34;8.90;;;3.22;;
29568;SDS011;16501;51.462;14.346;2023-02-18T09:47:20;9.85;;;2.28;;
29568;SDS011;16501;51.462;14.346;2023-02-18T09:49:51;7.60;;;2.30;;
29568;SDS011;16501;51.462;14.346;2023-02-18T09:52:27;6.95;;;2.70;;
29568;SDS011;16501;51.462;14.346;2023-02-18T09:54:55;9.52;;;2.92;;
29568;SDS011;16501;51.462;14.346;2023-02-18T09:57:43;8.65;;;2.22;;
29568;SDS011;16501;51.462;14.346;2023-02-18T10:00:38;5.80;;;2.50;;
29568;SDS011;16501;51.462;14.346;2023-02-18T10:03:14;10.68;;;3.10;;
29568;SDS011;16501;51.462;14.346;2023-02-18T10:05:59;4.85;;;2.60;;
29568;SDS011;16501;51.462;14.346;2023-02-18T10:08:47;6.90;;;2.78;;
29568;SDS011;16501;51.462;14.346;2023-02-18T10:11:16;7.82;;;3.10;;
29568;SDS011;16501;51.462;14.346;2023-02-18T10:13:55;5.68;;;2.78;;
29568;SDS011;16501;51.462;14.346;2023-02-18T10:16:24;4.28;;;2.85;;
29568;SDS011;16501;51.462;14.346;2023-02-18T10:18:55;5.05;;;2.92;;
29568;SDS011;16501;51.462;14.346;2023-02-18T10:21:23;4.55;;;2.58;;
29568;SDS011;16501;51.462;14.346;2023-02-18T10:23:58;7.88;;;3.95;;
29568;SDS011;16501;51.462;14.346;2023-02-18T10:26:24;6.63;;;2.85;;
29568;SDS011;16501;51.462;14.346;2023-02-18T10:28:50;5.60;;;3.40;;
29568;SDS011;16501;51.462;14.346;2023-02-18T10:31:30;6.13;;;3.50;;
29568;SDS011;16501;51.462;14.346;2023-02-18T10:34:14;8.77;;;3.45;;
29568;SDS011;16501;51.462;14.346;2023-02-18T10:36:48;7.22;;;3.65;;
29568;SDS011;16501;51.462;14.346;2023-02-18T10:52:58;4.50;;;2.55;;
29568;SDS011;16501;51.462;14.346;2023-02-18T10:55:38;5.38;;;2.75;;
29568;SDS011;16501;51.462;14.346;2023-02-18T11:01:12;3.78;;;2.78;;
29568;SDS011;16501;51.462;14.346;2023-02-18T11:03:44;6.47;;;2.88;;
29568;SDS011;16501;51.462;14.346;2023-02-18T11:06:31;6.47;;;2.97;;
29568;SDS011;16501;51.462;14.346;2023-02-18T11:09:03;5.20;;;2.78;;
29568;SDS011;16501;51.462;14.346;2023-02-18T11:11:35;8.10;;;3.03;;
29568;SDS011;16501;51.462;14.346;2023-02-18T11:14:03;4.55;;;3.22;;
29568;SDS011;16501;51.462;14.346;2023-02-18T11:16:40;6.00;;;3.10;;
29568;SDS011;16501;51.462;14.346;2023-02-18T11:19:30;4.97;;;2.55;;
29568;SDS011;16501;51.462;14.346;2023-02-18T11:22:14;4.97;;;3.25;;
29568;SDS011;16501;51.462;14.346;2023-02-18T11:24:43;6.15;;;3.65;;
29568;SDS011;16501;51.462;14.346;2023-02-18T11:30:20;4.50;;;3.13;;
29568;SDS011;16501;51.462;14.346;2023-02-18T11:32:49;5.95;;;3.53;;
29568;SDS011;16501;51.462;14.346;2023-02-18T11:35:22;6.68;;;3.88;;
29568;SDS011;16501;51.462;14.346;2023-02-18T11:37:49;9.27;;;4.43;;
29568;SDS011;16501;51.462;14.346;2023-02-18T11:40:34;8.07;;;5.95;;
29568;SDS011;16501;51.462;14.346;2023-02-18T11:45:32;8.15;;;5.80;;
29568;SDS011;16501;51.462;14.346;2023-02-18T11:48:00;7.40;;;5.00;;
29568;SDS011;16501;51.462;14.346;2023-02-18T11:50:31;6.72;;;4.95;;
29568;SDS011;16501;51.462;14.346;2023-02-18T11:52:58;6.38;;;4.45;;
29568;SDS011;16501;51.462;14.346;2023-02-18T11:55:28;6.25;;;4.68;;
29568;SDS011;16501;51.462;14.346;2023-02-18T11:57:56;8.93;;;4.15;;
29568;SDS011;16501;51.462;14.346;2023-02-18T12:00:25;5.75;;;3.95;;
29568;SDS011;16501;51.462;14.346;2023-02-18T12:03:17;8.10;;;3.22;;
29568;SDS011;16501;51.462;14.346;2023-02-18T12:05:47;4.95;;;3.20;;
29568;SDS011;16501;51.462;14.346;2023-02-18T12:08:34;3.40;;;2.65;;
29568;SDS011;16501;51.462;14.346;2023-02-18T12:11:13;4.55;;;2.70;;
29568;SDS011;16501;51.462;14.346;2023-02-18T12:13:48;3.78;;;2.70;;
29568;SDS011;16501;51.462;14.346;2023-02-18T12:19:35;9.35;;;5.20;;
29568;SDS011;16501;51.462;14.346;2023-02-18T12:40:07;1.52;;;1.20;;
29568;SDS011;16501;51.462;14.346;2023-02-18T12:45:24;1.42;;;1.15;;
29568;SDS011;16501;51.462;14.346;2023-02-18T12:48:10;1.02;;;0.80;;
29568;SDS011;16501;51.462;14.346;2023-02-18T12:59:54;1.48;;;0.95;;
29568;SDS011;16501;51.462;14.346;2023-02-18T13:02:37;0.55;;;0.55;;
29568;SDS011;16501;51.462;14.346;2023-02-18T13:11:00;0.47;;;0.47;;
29568;SDS011;16501;51.462;14.346;2023-02-18T13:13:40;0.70;;;0.50;;
29568;SDS011;16501;51.462;14.346;2023-02-18T13:16:12;0.65;;;0.55;;
29568;SDS011;16501;51.462;14.346;2023-02-18T13:18:43;0.88;;;0.57;;
29568;SDS011;16501;51.462;14.346;2023-02-18T13:21:16;2.30;;;1.50;;
29568;SDS011;16501;51.462;14.346;2023-02-18T13:26:20;2.30;;;1.85;;
29568;SDS011;16501;51.462;14.346;2023-02-18T13:28:57;5.57;;;3.13;;
29568;SDS011;16501;51.462;14.346;2023-02-18T13:31:46;6.93;;;4.43;;
29568;SDS011;16501;51.462;14.346;2023-02-18T13:34:36;1.80;;;1.63;;
29568;SDS011;16501;51.462;14.346;2023-02-18T13:37:25;1.27;;;0.95;;
29568;SDS011;16501;51.462;14.346;2023-02-18T13:39:52;0.73;;;0.73;;
29568;SDS011;16501;51.462;14.346;2023-02-18T13:47:36;0.52;;;0.52;;
29568;SDS011;16501;51.462;14.346;2023-02-18T13:50:14;1.63;;;0.70;;
29568;SDS011;16501;51.462;14.346;2023-02-18T13:52:49;1.50;;;1.40;;
29568;SDS011;16501;51.462;14.346;2023-02-18T13:55:22;0.90;;;0.90;;
29568;SDS011;16501;51.462;14.346;2023-02-18T13:57:52;2.83;;;0.80;;
29568;SDS011;16501;51.462;14.346;2023-02-18T14:00:20;1.45;;;1.10;;
29568;SDS011;16501;51.462;14.346;2023-02-18T14:02:54;1.48;;;1.02;;
29568;SDS011;16501;51.462;14.346;2023-02-18T14:05:23;0.60;;;0.50;;
29568;SDS011;16501;51.462;14.346;2023-02-18T14:08:11;0.68;;;0.60;;
29568;SDS011;16501;51.462;14.346;2023-02-18T14:28:40;1.00;;;0.63;;
29568;SDS011;16501;51.462;14.346;2023-02-18T14:33:49;1.10;;;1.00;;
29568;SDS011;16501;51.462;14.346;2023-02-18T14:42:07;2.53;;;1.85;;
29568;SDS011;16501;51.462;14.346;2023-02-18T14:50:11;1.15;;;0.85;;
29568;SDS011;16501;51.462;14.346;2023-02-18T14:52:43;0.63;;;0.63;;
29568;SDS011;16501;51.462;14.346;2023-02-18T14:55:22;0.70;;;0.60;;
29568;SDS011;16501;51.462;14.346;2023-02-18T14:58:01;1.00;;;0.85;;
29568;SDS011;16501;51.462;14.346;2023-02-18T15:00:52;1.88;;;0.50;;
29568;SDS011;16501;51.462;14.346;2023-02-18T15:03:18;0.98;;;0.73;;
29568;SDS011;16501;51.462;14.346;2023-02-18T15:05:46;1.25;;;0.80;;
29568;SDS011;16501;51.462;14.346;2023-02-18T15:08:18;0.55;;;0.55;;
29568;SDS011;16501;51.462;14.346;2023-02-18T15:13:27;3.00;;;1.00;;
29568;SDS011;16501;51.462;14.346;2023-02-18T15:15:59;1.88;;;1.42;;
29568;SDS011;16501;51.462;14.346;2023-02-18T15:18:35;11.25;;;8.60;;
29568;SDS011;16501;51.462;14.346;2023-02-18T15:21:04;2.03;;;1.75;;
29568;SDS011;16501;51.462;14.346;2023-02-18T15:23:33;4.88;;;3.28;;
29568;SDS011;16501;51.462;14.346;2023-02-18T15:26:00;2.83;;;1.48;;
29568;SDS011;16501;51.462;14.346;2023-02-18T15:28:28;2.83;;;1.25;;
29568;SDS011;16501;51.462;14.346;2023-02-18T15:30:56;0.60;;;0.50;;
29568;SDS011;16501;51.462;14.346;2023-02-18T15:33:27;1.05;;;0.65;;
29568;SDS011;16501;51.462;14.346;2023-02-18T15:35:59;0.90;;;0.90;;
29568;SDS011;16501;51.462;14.346;2023-02-18T15:38:26;1.05;;;0.95;;
29568;SDS011;16501;51.462;14.346;2023-02-18T15:40:51;1.20;;;0.82;;
29568;SDS011;16501;51.462;14.346;2023-02-18T15:43:22;1.15;;;0.82;;
29568;SDS011;16501;51.462;14.346;2023-02-18T15:45:51;0.88;;;0.85;;
29568;SDS011;16501;51.462;14.346;2023-02-18T15:48:21;0.65;;;0.65;;
29568;SDS011;16501;51.462;14.346;2023-02-18T15:51:09;1.95;;;0.70;;
29568;SDS011;16501;51.462;14.346;2023-02-18T15:53:37;3.00;;;1.45;;
29568;SDS011;16501;51.462;14.346;2023-02-18T15:56:08;2.58;;;1.58;;
29568;SDS011;16501;51.462;14.346;2023-02-18T15:58:35;4.13;;;2.80;;
29568;SDS011;16501;51.462;14.346;2023-02-18T16:01:01;4.05;;;2.45;;
29568;SDS011;16501;51.462;14.346;2023-02-18T16:03:29;6.93;;;3.67;;
29568;SDS011;16501;51.462;14.346;2023-02-18T16:06:18;6.88;;;3.80;;
29568;SDS011;16501;51.462;14.346;2023-02-18T16:09:00;12.45;;;6.95;;
29568;SDS011;16501;51.462;14.346;2023-02-18T16:11:39;6.68;;;3.58;;
29568;SDS011;16501;51.462;14.346;2023-02-18T16:14:19;7.95;;;4.88;;
29568;SDS011;16501;51.462;14.346;2023-02-18T16:16:56;3.10;;;2.00;;
29568;SDS011;16501;51.462;14.346;2023-02-18T16:20:12;4.47;;;2.00;;
29568;SDS011;16501;51.462;14.346;2023-02-18T16:23:24;4.43;;;2.92;;
29568;SDS011;16501;51.462;14.346;2023-02-18T16:30:53;3.15;;;1.45;;
29568;SDS011;16501;51.462;14.346;2023-02-18T16:33:18;3.22;;;1.00;;
29568;SDS011;16501;51.462;14.346;2023-02-18T16:35:44;2.88;;;1.70;;
29568;SDS011;16501;51.462;14.346;2023-02-18T16:38:12;2.75;;;0.60;;
29568;SDS011;16501;51.462;14.346;2023-02-18T16:40:41;1.25;;;0.85;;
29568;SDS011;16501;51.462;14.346;2023-02-18T16:45:37;3.67;;;0.70;;
29568;SDS011;16501;51.462;14.346;2023-02-18T16:48:04;1.15;;;0.68;;
29568;SDS011;16501;51.462;14.346;2023-02-18T16:50:31;1.80;;;0.60;;
29568;SDS011;16501;51.462;14.346;2023-02-18T16:52:57;0.77;;;0.70;;
29568;SDS011;16501;51.462;14.346;2023-02-18T16:55:24;0.90;;;0.80;;
29568;SDS011;16501;51.462;14.346;2023-02-18T16:57:51;0.82;;;0.55;;
29568;SDS011;16501;51.462;14.346;2023-02-18T17:00:17;1.38;;;0.80;;
29568;SDS011;16501;51.462;14.346;2023-02-18T17:02:47;2.47;;;0.65;;
29568;SDS011;16501;51.462;14.346;2023-02-18T17:05:18;1.13;;;0.70;;
29568;SDS011;16501;51.462;14.346;2023-02-18T17:10:11;1.75;;;0.65;;
29568;SDS011;16501;51.462;14.346;2023-02-18T17:12:37;1.58;;;0.70;;
29568;SDS011;16501;51.462;14.346;2023-02-18T17:20:13;1.35;;;0.65;;
29568;SDS011;16501;51.462;14.346;2023-02-18T17:22:40;1.00;;;0.73;;
29568;SDS011;16501;51.462;14.346;2023-02-18T17:25:19;1.85;;;0.70;;
29568;SDS011;16501;51.462;14.346;2023-02-18T17:27:48;0.87;;;0.70;;